createdAt,value
2018-09-24T00:01:25.144Z,12.70
2018-09-24T00:03:52.747Z,12.70
2018-09-24T00:06:20.331Z,12.60
2018-09-24T00:08:47.947Z,13.00
2018-09-24T00:11:15.567Z,12.80
2018-09-24T00:13:43.215Z,12.80
2018-09-24T00:16:10.788Z,12.90
2018-09-24T00:18:38.462Z,13.10
2018-09-24T00:21:06.270Z,12.90
2018-09-24T00:23:33.854Z,12.70
2018-09-24T00:26:01.459Z,12.80
2018-09-24T00:28:29.099Z,12.90
2018-09-24T00:30:56.712Z,12.90
2018-09-24T00:33:24.339Z,12.90
2018-09-24T00:35:51.876Z,12.90
2018-09-24T00:38:19.462Z,13.20
2018-09-24T00:40:47.148Z,13.20
2018-09-24T00:43:14.744Z,13.00
2018-09-24T00:45:42.355Z,12.80
2018-09-24T00:48:09.926Z,13.10
2018-09-24T00:50:37.567Z,13.10
2018-09-24T00:53:05.200Z,12.90
2018-09-24T00:55:32.807Z,13.00
2018-09-24T00:58:00.414Z,12.70
2018-09-24T01:00:28.014Z,12.90
2018-09-24T01:02:55.635Z,12.90
2018-09-24T01:05:23.284Z,12.90
2018-09-24T01:07:50.930Z,12.90
2018-09-24T01:10:18.538Z,12.70
2018-09-24T01:12:46.166Z,12.70
2018-09-24T01:15:13.776Z,12.60
2018-09-24T01:17:41.394Z,12.80
2018-09-24T01:20:09.963Z,12.50
2018-09-24T01:22:37.650Z,12.60
2018-09-24T01:25:05.530Z,12.60
2018-09-24T01:27:33.175Z,12.60
2018-09-24T01:30:00.872Z,12.40
2018-09-24T01:32:28.443Z,12.80
2018-09-24T01:34:56.055Z,12.30
2018-09-24T01:37:23.703Z,12.20
2018-09-24T01:39:51.299Z,12.60
2018-09-24T01:42:18.858Z,12.30
2018-09-24T01:44:46.569Z,12.40
2018-09-24T01:47:14.187Z,12.40
2018-09-24T01:49:41.742Z,12.20
2018-09-24T01:52:09.440Z,12.20
2018-09-24T01:54:37.119Z,12.30
2018-09-24T01:57:12.463Z,12.00
2018-09-24T01:59:40.839Z,12.20
2018-09-24T02:02:08.482Z,12.30
2018-09-24T02:04:36.267Z,11.90
2018-09-24T02:07:03.875Z,12.00
2018-09-24T02:09:31.623Z,12.30
2018-09-24T02:12:03.990Z,12.20
2018-09-24T02:14:31.629Z,12.10
2018-09-24T02:16:59.252Z,12.00
2018-09-24T02:19:26.858Z,12.10
2018-09-24T02:21:54.451Z,12.20
2018-09-24T02:24:21.992Z,12.10
2018-09-24T02:26:49.624Z,12.40
2018-09-24T02:29:17.233Z,12.00
2018-09-24T02:31:44.884Z,12.00
2018-09-24T02:34:12.623Z,12.30
2018-09-24T02:36:40.590Z,12.10
2018-09-24T02:39:09.211Z,12.00
2018-09-24T02:41:37.431Z,12.00
2018-09-24T02:44:05.028Z,12.20
2018-09-24T02:46:33.141Z,12.10
2018-09-24T02:49:01.888Z,12.10
2018-09-24T02:51:29.898Z,12.10
2018-09-24T02:53:57.532Z,11.90
2018-09-24T02:56:25.240Z,12.10
2018-09-24T02:58:52.875Z,11.90
2018-09-24T03:01:20.565Z,12.00
2018-09-24T03:03:48.255Z,11.90
2018-09-24T03:06:15.893Z,12.00
2018-09-24T03:08:43.512Z,11.80
2018-09-24T03:11:11.263Z,11.80
2018-09-24T03:13:38.839Z,12.10
2018-09-24T03:16:06.555Z,11.80
2018-09-24T03:18:34.086Z,11.80
2018-09-24T03:21:01.779Z,11.80
2018-09-24T03:23:29.370Z,11.60
2018-09-24T03:25:56.963Z,11.60
2018-09-24T03:28:24.509Z,11.70
2018-09-24T03:30:52.162Z,11.40
2018-09-24T03:33:19.727Z,11.60
2018-09-24T03:35:47.360Z,11.70
2018-09-24T03:38:14.955Z,11.60
2018-09-24T03:40:42.535Z,11.50
2018-09-24T03:43:10.128Z,11.40
2018-09-24T03:45:37.727Z,11.50
2018-09-24T03:48:05.645Z,11.20
2018-09-24T03:50:33.299Z,11.40
2018-09-24T03:53:00.912Z,11.60
2018-09-24T03:55:28.599Z,11.60
2018-09-24T03:57:56.243Z,11.40
2018-09-24T04:00:23.873Z,11.40
2018-09-24T04:02:51.496Z,11.20
2018-09-24T04:05:24.678Z,11.20
2018-09-24T04:07:57.919Z,11.30
2018-09-24T04:10:31.110Z,11.40
2018-09-24T04:13:04.226Z,11.10
2018-09-24T04:15:37.364Z,11.40
2018-09-24T04:18:10.515Z,11.50
2018-09-24T04:20:43.750Z,11.30
2018-09-24T04:23:16.807Z,11.40
2018-09-24T04:25:50.136Z,11.40
2018-09-24T04:28:23.274Z,11.30
2018-09-24T04:30:56.512Z,11.30
2018-09-24T04:33:29.636Z,11.10
2018-09-24T04:36:02.780Z,11.50
2018-09-24T04:38:36.075Z,11.40
2018-09-24T04:41:09.314Z,11.20
2018-09-24T04:43:42.422Z,11.40
2018-09-24T04:46:16.663Z,11.10
2018-09-24T04:48:49.932Z,10.70
2018-09-24T04:51:23.230Z,10.70
2018-09-24T04:53:56.382Z,10.90
2018-09-24T04:56:29.603Z,10.80
2018-09-24T04:59:02.683Z,10.60
2018-09-24T05:01:35.900Z,11.00
2018-09-24T05:04:09.127Z,11.00
2018-09-24T05:06:42.423Z,10.60
2018-09-24T05:09:15.719Z,11.00
2018-09-24T05:11:49.003Z,10.60
2018-09-24T05:14:22.117Z,10.60
2018-09-24T05:16:55.399Z,11.00
2018-09-24T05:19:28.527Z,10.60
2018-09-24T05:22:01.834Z,10.80
2018-09-24T05:24:34.878Z,10.50
2018-09-24T05:27:08.168Z,10.70
2018-09-24T05:29:41.263Z,10.50
2018-09-24T05:32:14.457Z,10.30
2018-09-24T05:34:47.632Z,10.40
2018-09-24T05:37:20.762Z,10.40
2018-09-24T05:39:53.979Z,10.60
2018-09-24T05:42:27.271Z,10.50
2018-09-24T05:45:00.311Z,10.60
2018-09-24T05:47:33.572Z,10.90
2018-09-24T05:50:06.851Z,11.00
2018-09-24T05:52:40.131Z,10.80
2018-09-24T05:55:13.216Z,10.80
2018-09-24T05:57:46.511Z,11.10
2018-09-24T06:00:19.871Z,11.10
2018-09-24T06:02:53.154Z,10.90
2018-09-24T06:05:26.295Z,11.00
2018-09-24T06:07:59.432Z,10.90
2018-09-24T06:10:32.800Z,10.90
2018-09-24T06:13:05.989Z,11.00
2018-09-24T06:15:39.182Z,10.90
2018-09-24T06:18:12.369Z,10.80
2018-09-24T06:20:45.509Z,10.80
2018-09-24T06:23:18.730Z,10.80
2018-09-24T06:25:51.891Z,11.00
2018-09-24T06:28:25.049Z,11.20
2018-09-24T06:30:58.419Z,11.10
2018-09-24T06:33:31.695Z,11.40
2018-09-24T06:36:04.983Z,11.60
2018-09-24T06:38:38.206Z,11.60
2018-09-24T06:41:11.595Z,11.80
2018-09-24T06:43:44.827Z,11.80
2018-09-24T06:46:18.171Z,12.30
2018-09-24T06:48:51.282Z,12.00
2018-09-24T06:51:24.575Z,12.60
2018-09-24T06:53:57.837Z,12.60
2018-09-24T06:56:31.042Z,12.60
2018-09-24T06:59:04.284Z,12.70
2018-09-24T07:01:37.435Z,13.40
2018-09-24T07:04:10.595Z,14.50
2018-09-24T07:06:43.738Z,14.90
2018-09-24T07:09:17.041Z,15.40
2018-09-24T07:11:50.227Z,16.90
2018-09-24T07:14:23.447Z,18.20
2018-09-24T07:16:56.767Z,18.90
2018-09-24T07:19:30.025Z,19.80
2018-09-24T07:22:03.403Z,20.60
2018-09-24T07:24:36.638Z,21.20
2018-09-24T07:27:09.804Z,21.80
2018-09-24T07:29:43.055Z,21.40
2018-09-24T07:32:16.363Z,20.70
2018-09-24T07:34:49.451Z,19.30
2018-09-24T07:37:22.690Z,18.30
2018-09-24T07:39:55.775Z,17.20
2018-09-24T07:42:28.946Z,17.00
2018-09-24T07:45:02.216Z,17.30
2018-09-24T07:47:35.503Z,17.90
2018-09-24T07:50:08.808Z,19.10
2018-09-24T07:52:42.170Z,21.20
2018-09-24T07:55:15.441Z,22.60
2018-09-24T07:57:48.720Z,23.30
2018-09-24T08:00:21.927Z,23.30
2018-09-24T08:02:55.054Z,22.70
2018-09-24T08:05:28.344Z,24.00
2018-09-24T08:08:01.564Z,25.30
2018-09-24T08:10:34.783Z,26.00
2018-09-24T08:13:08.366Z,26.60
2018-09-24T08:15:41.746Z,27.50
2018-09-24T08:18:15.073Z,27.10
2018-09-24T08:20:48.258Z,26.80
2018-09-24T08:23:21.638Z,27.10
2018-09-24T08:25:54.870Z,26.60
2018-09-24T08:28:28.089Z,24.70
2018-09-24T08:31:01.212Z,22.20
2018-09-24T08:33:34.495Z,21.10
2018-09-24T08:36:07.816Z,21.90
2018-09-24T08:38:41.095Z,23.40
2018-09-24T08:41:14.395Z,22.80
2018-09-24T08:43:47.571Z,23.30
2018-09-24T08:46:20.810Z,24.20
2018-09-24T08:48:53.924Z,23.80
2018-09-24T08:51:27.393Z,23.40
2018-09-24T08:54:00.509Z,22.60
2018-09-24T08:56:33.758Z,22.10
2018-09-24T08:59:07.075Z,23.00
2018-09-24T09:01:40.182Z,23.60
2018-09-24T09:04:13.475Z,23.90
2018-09-24T09:06:46.859Z,24.10
2018-09-24T09:09:20.183Z,22.40
2018-09-24T09:11:53.405Z,21.00
2018-09-24T09:14:26.655Z,20.40
2018-09-24T09:16:59.755Z,20.40
2018-09-24T09:19:32.963Z,21.90
2018-09-24T09:22:06.270Z,23.00
2018-09-24T09:24:39.316Z,23.90
2018-09-24T09:27:12.504Z,24.10
2018-09-24T09:29:45.888Z,24.10
2018-09-24T09:32:19.352Z,23.30
2018-09-24T09:34:52.534Z,21.80
2018-09-24T09:37:25.734Z,21.00
2018-09-24T09:39:58.902Z,21.50
2018-09-24T09:42:32.039Z,23.10
2018-09-24T09:45:05.087Z,22.90
2018-09-24T09:47:38.615Z,21.60
2018-09-24T09:50:12.674Z,21.30
2018-09-24T09:52:45.898Z,20.70
2018-09-24T09:55:19.086Z,19.80
2018-09-24T09:57:53.039Z,19.20
2018-09-24T10:00:26.286Z,18.40
2018-09-24T10:02:59.510Z,18.10
2018-09-24T10:05:32.728Z,17.40
2018-09-24T10:08:05.963Z,18.00
2018-09-24T10:10:39.258Z,19.10
2018-09-24T10:13:12.383Z,20.40
2018-09-24T10:15:45.719Z,21.60
2018-09-24T10:18:18.827Z,22.10
2018-09-24T10:20:52.070Z,22.60
2018-09-24T10:23:25.410Z,21.80
2018-09-24T10:25:58.560Z,20.70
2018-09-24T10:28:31.639Z,19.70
2018-09-24T10:31:04.879Z,19.60
2018-09-24T10:33:38.049Z,18.70
2018-09-24T10:36:11.427Z,18.60
2018-09-24T10:38:44.743Z,18.70
2018-09-24T10:41:18.098Z,18.60
2018-09-24T10:43:51.350Z,18.60
2018-09-24T10:46:24.727Z,18.60
2018-09-24T10:48:57.987Z,18.40
2018-09-24T10:51:31.168Z,18.20
2018-09-24T10:54:04.473Z,18.10
2018-09-24T10:56:37.694Z,18.20
2018-09-24T10:59:10.991Z,18.00
2018-09-24T11:01:44.280Z,17.90
2018-09-24T11:04:17.519Z,17.80
2018-09-24T11:06:50.735Z,18.00
2018-09-24T11:09:24.060Z,18.00
2018-09-24T11:11:57.310Z,18.80
2018-09-24T11:14:30.430Z,19.50
2018-09-24T11:17:03.731Z,20.30
2018-09-24T11:19:36.786Z,20.50
2018-09-24T11:22:10.069Z,21.10
2018-09-24T11:24:43.326Z,21.20
2018-09-24T11:27:16.573Z,21.60
2018-09-24T11:29:49.811Z,21.70
2018-09-24T11:32:22.971Z,21.80
2018-09-24T11:34:56.324Z,21.90
2018-09-24T11:37:29.568Z,21.30
2018-09-24T11:40:02.682Z,21.20
2018-09-24T11:42:35.815Z,21.00
2018-09-24T11:45:08.930Z,20.90
2018-09-24T11:47:42.143Z,20.70
2018-09-24T11:50:15.385Z,20.20
2018-09-24T11:52:48.535Z,19.80
2018-09-24T11:55:21.811Z,19.20
2018-09-24T11:57:55.056Z,19.30
2018-09-24T12:00:35.087Z,19.30
2018-09-24T12:03:08.322Z,19.60
2018-09-24T12:05:41.566Z,19.50
2018-09-24T12:08:14.664Z,19.20
2018-09-24T12:10:47.715Z,19.10
2018-09-24T12:13:20.914Z,19.10
2018-09-24T12:15:54.272Z,19.10
2018-09-24T12:18:27.663Z,18.70
2018-09-24T12:21:00.902Z,19.00
2018-09-24T12:23:34.111Z,19.00
2018-09-24T12:26:07.210Z,19.00
2018-09-24T12:28:40.280Z,18.90
2018-09-24T12:31:13.351Z,19.10
2018-09-24T12:33:46.597Z,18.90
2018-09-24T12:36:19.826Z,19.30
2018-09-24T12:38:52.994Z,19.50
2018-09-24T12:41:26.138Z,19.60
2018-09-24T12:43:59.295Z,20.50
2018-09-24T12:46:32.546Z,20.20
2018-09-24T12:49:05.587Z,20.20
2018-09-24T12:51:38.707Z,20.20
